sensor_id;sensor_type;location;lat;lon;timestamp;P1;durP1;ratioP1;P2;durP2;ratioP2
48623;SDS011;34422;45.802;16.114;2023-04-03T00:00:39;5.32;;;3.17;;
48623;SDS011;34422;45.802;16.114;2023-04-03T00:03:07;5.43;;;3.40;;
48623;SDS011;34422;45.802;16.114;2023-04-03T00:05:34;5.57;;;3.08;;
48623;SDS011;34422;45.802;16.114;2023-04-03T00:08:01;4.82;;;2.92;;
48623;SDS011;34422;45.802;16.114;2023-04-03T00:10:28;5.88;;;3.25;;
48623;SDS011;34422;45.802;16.114;2023-04-03T00:12:55;6.00;;;3.42;;
48623;SDS011;34422;45.802;16.114;2023-04-03T00:15:22;5.20;;;3.15;;
48623;SDS011;34422;45.802;16.114;2023-04-03T00:17:48;6.03;;;3.55;;
48623;SDS011;34422;45.802;16.114;2023-04-03T00:20:15;5.20;;;2.95;;
48623;SDS011;34422;45.802;16.114;2023-04-03T00:22:42;5.57;;;3.35;;
48623;SDS011;34422;45.802;16.114;2023-04-03T00:25:09;5.45;;;3.35;;
48623;SDS011;34422;45.802;16.114;2023-04-03T00:27:36;5.97;;;3.05;;
48623;SDS011;34422;45.802;16.114;2023-04-03T00:30:05;5.28;;;3.13;;
48623;SDS011;34422;45.802;16.114;2023-04-03T00:32:33;6.50;;;3.40;;
48623;SDS011;34422;45.802;16.114;2023-04-03T00:35:00;5.72;;;3.33;;
48623;SDS011;34422;45.802;16.114;2023-04-03T00:37:27;6.25;;;3.03;;
48623;SDS011;34422;45.802;16.114;2023-04-03T00:39:53;5.53;;;3.25;;
48623;SDS011;34422;45.802;16.114;2023-04-03T00:42:20;5.88;;;3.40;;
48623;SDS011;34422;45.802;16.114;2023-04-03T00:47:15;5.57;;;3.38;;
48623;SDS011;34422;45.802;16.114;2023-04-03T00:49:43;4.60;;;2.97;;
48623;SDS011;34422;45.802;16.114;2023-04-03T00:52:13;5.03;;;2.88;;
48623;SDS011;34422;45.802;16.114;2023-04-03T00:54:43;6.35;;;3.60;;
48623;SDS011;34422;45.802;16.114;2023-04-03T00:57:12;6.15;;;3.65;;
48623;SDS011;34422;45.802;16.114;2023-04-03T00:59:40;5.75;;;3.60;;
48623;SDS011;34422;45.802;16.114;2023-04-03T01:02:12;5.57;;;2.97;;
48623;SDS011;34422;45.802;16.114;2023-04-03T01:04:40;5.72;;;2.92;;
48623;SDS011;34422;45.802;16.114;2023-04-03T01:07:15;5.57;;;3.25;;
48623;SDS011;34422;45.802;16.114;2023-04-03T01:09:45;5.53;;;3.10;;
48623;SDS011;34422;45.802;16.114;2023-04-03T01:12:21;5.47;;;2.70;;
48623;SDS011;34422;45.802;16.114;2023-04-03T01:14:52;5.68;;;3.08;;
48623;SDS011;34422;45.802;16.114;2023-04-03T01:25:41;4.68;;;2.47;;
48623;SDS011;34422;45.802;16.114;2023-04-03T01:28:10;4.55;;;2.20;;
48623;SDS011;34422;45.802;16.114;2023-04-03T01:30:42;4.30;;;2.30;;
48623;SDS011;34422;45.802;16.114;2023-04-03T01:33:13;4.25;;;2.20;;
48623;SDS011;34422;45.802;16.114;2023-04-03T01:35:40;4.03;;;1.95;;
48623;SDS011;34422;45.802;16.114;2023-04-03T01:38:07;3.95;;;1.92;;
48623;SDS011;34422;45.802;16.114;2023-04-03T01:40:34;4.03;;;1.80;;
48623;SDS011;34422;45.802;16.114;2023-04-03T01:43:00;4.32;;;2.00;;
48623;SDS011;34422;45.802;16.114;2023-04-03T01:45:27;3.83;;;1.85;;
48623;SDS011;34422;45.802;16.114;2023-04-03T01:47:54;3.63;;;2.15;;
48623;SDS011;34422;45.802;16.114;2023-04-03T01:50:21;4.88;;;2.25;;
48623;SDS011;34422;45.802;16.114;2023-04-03T01:52:47;3.95;;;1.90;;
48623;SDS011;34422;45.802;16.114;2023-04-03T01:55:14;3.55;;;1.70;;
48623;SDS011;34422;45.802;16.114;2023-04-03T01:57:41;3.38;;;1.67;;
48623;SDS011;34422;45.802;16.114;2023-04-03T02:00:08;4.57;;;1.95;;
48623;SDS011;34422;45.802;16.114;2023-04-03T02:02:35;4.07;;;1.95;;
48623;SDS011;34422;45.802;16.114;2023-04-03T02:05:02;4.05;;;1.77;;
48623;SDS011;34422;45.802;16.114;2023-04-03T02:07:29;3.67;;;1.85;;
48623;SDS011;34422;45.802;16.114;2023-04-03T02:09:55;3.78;;;1.90;;
48623;SDS011;34422;45.802;16.114;2023-04-03T02:12:22;4.50;;;2.30;;
48623;SDS011;34422;45.802;16.114;2023-04-03T02:14:49;4.10;;;2.10;;
48623;SDS011;34422;45.802;16.114;2023-04-03T02:17:16;3.90;;;1.70;;
48623;SDS011;34422;45.802;16.114;2023-04-03T02:19:42;4.65;;;1.60;;
48623;SDS011;34422;45.802;16.114;2023-04-03T02:22:09;4.43;;;2.03;;
48623;SDS011;34422;45.802;16.114;2023-04-03T02:24:36;4.28;;;2.00;;
48623;SDS011;34422;45.802;16.114;2023-04-03T02:27:05;3.28;;;1.40;;
48623;SDS011;34422;45.802;16.114;2023-04-03T02:29:32;3.97;;;1.50;;
48623;SDS011;34422;45.802;16.114;2023-04-03T02:31:59;4.22;;;1.90;;
48623;SDS011;34422;45.802;16.114;2023-04-03T02:34:26;3.53;;;1.75;;
48623;SDS011;34422;45.802;16.114;2023-04-03T02:36:53;3.50;;;1.50;;
48623;SDS011;34422;45.802;16.114;2023-04-03T02:39:19;3.60;;;1.60;;
48623;SDS011;34422;45.802;16.114;2023-04-03T02:41:46;4.20;;;1.88;;
48623;SDS011;34422;45.802;16.114;2023-04-03T02:44:13;3.40;;;1.38;;
48623;SDS011;34422;45.802;16.114;2023-04-03T02:46:40;3.92;;;1.80;;
48623;SDS011;34422;45.802;16.114;2023-04-03T02:49:06;5.00;;;1.60;;
48623;SDS011;34422;45.802;16.114;2023-04-03T02:51:33;4.45;;;1.80;;
48623;SDS011;34422;45.802;16.114;2023-04-03T02:54:00;5.65;;;1.70;;
48623;SDS011;34422;45.802;16.114;2023-04-03T02:56:27;3.92;;;1.92;;
48623;SDS011;34422;45.802;16.114;2023-04-03T02:58:54;3.90;;;1.67;;
48623;SDS011;34422;45.802;16.114;2023-04-03T03:01:21;3.88;;;1.80;;
48623;SDS011;34422;45.802;16.114;2023-04-03T03:03:47;3.70;;;1.60;;
48623;SDS011;34422;45.802;16.114;2023-04-03T03:06:15;4.28;;;1.70;;
48623;SDS011;34422;45.802;16.114;2023-04-03T03:08:43;3.45;;;1.65;;
48623;SDS011;34422;45.802;16.114;2023-04-03T03:11:10;3.47;;;1.50;;
48623;SDS011;34422;45.802;16.114;2023-04-03T03:13:37;4.88;;;1.90;;
48623;SDS011;34422;45.802;16.114;2023-04-03T03:16:04;4.53;;;1.92;;
48623;SDS011;34422;45.802;16.114;2023-04-03T03:18:31;4.82;;;1.77;;
48623;SDS011;34422;45.802;16.114;2023-04-03T03:20:59;4.15;;;1.80;;
48623;SDS011;34422;45.802;16.114;2023-04-03T03:23:27;4.40;;;1.48;;
48623;SDS011;34422;45.802;16.114;2023-04-03T03:25:56;3.72;;;1.60;;
48623;SDS011;34422;45.802;16.114;2023-04-03T03:28:24;4.05;;;1.70;;
48623;SDS011;34422;45.802;16.114;2023-04-03T03:30:51;3.97;;;1.83;;
48623;SDS011;34422;45.802;16.114;2023-04-03T03:33:18;6.10;;;1.85;;
48623;SDS011;34422;45.802;16.114;2023-04-03T03:35:45;3.15;;;1.42;;
48623;SDS011;34422;45.802;16.114;2023-04-03T03:38:12;4.57;;;1.60;;
48623;SDS011;34422;45.802;16.114;2023-04-03T03:40:39;4.00;;;1.85;;
48623;SDS011;34422;45.802;16.114;2023-04-03T03:43:06;3.92;;;1.83;;
48623;SDS011;34422;45.802;16.114;2023-04-03T03:45:33;3.40;;;1.50;;
48623;SDS011;34422;45.802;16.114;2023-04-03T03:48:00;4.22;;;1.80;;
48623;SDS011;34422;45.802;16.114;2023-04-03T03:50:27;3.63;;;1.45;;
48623;SDS011;34422;45.802;16.114;2023-04-03T03:52:54;4.35;;;1.92;;
48623;SDS011;34422;45.802;16.114;2023-04-03T03:55:20;3.72;;;1.58;;
48623;SDS011;34422;45.802;16.114;2023-04-03T03:57:48;3.90;;;1.58;;
48623;SDS011;34422;45.802;16.114;2023-04-03T04:00:14;3.42;;;1.50;;
48623;SDS011;34422;45.802;16.114;2023-04-03T04:02:42;4.03;;;1.65;;
48623;SDS011;34422;45.802;16.114;2023-04-03T04:05:09;3.70;;;1.75;;
48623;SDS011;34422;45.802;16.114;2023-04-03T04:07:36;4.47;;;1.70;;
48623;SDS011;34422;45.802;16.114;2023-04-03T04:10:03;3.72;;;1.70;;
48623;SDS011;34422;45.802;16.114;2023-04-03T04:12:30;4.20;;;1.67;;
48623;SDS011;34422;45.802;16.114;2023-04-03T04:14:57;3.28;;;1.63;;
48623;SDS011;34422;45.802;16.114;2023-04-03T04:17:24;5.20;;;1.90;;
48623;SDS011;34422;45.802;16.114;2023-04-03T04:19:50;3.50;;;1.60;;
48623;SDS011;34422;45.802;16.114;2023-04-03T04:22:17;3.78;;;1.70;;
48623;SDS011;34422;45.802;16.114;2023-04-03T04:24:44;3.70;;;1.70;;
48623;SDS011;34422;45.802;16.114;2023-04-03T04:27:11;4.50;;;1.70;;
48623;SDS011;34422;45.802;16.114;2023-04-03T04:29:38;4.30;;;1.73;;
48623;SDS011;34422;45.802;16.114;2023-04-03T04:32:04;3.75;;;1.48;;
48623;SDS011;34422;45.802;16.114;2023-04-03T04:34:31;4.63;;;1.50;;
48623;SDS011;34422;45.802;16.114;2023-04-03T04:36:58;5.95;;;1.85;;
48623;SDS011;34422;45.802;16.114;2023-04-03T04:39:25;4.40;;;2.10;;
48623;SDS011;34422;45.802;16.114;2023-04-03T04:41:52;4.43;;;2.00;;
48623;SDS011;34422;45.802;16.114;2023-04-03T04:44:19;3.65;;;1.65;;
48623;SDS011;34422;45.802;16.114;2023-04-03T04:46:46;5.55;;;1.95;;
48623;SDS011;34422;45.802;16.114;2023-04-03T04:49:15;4.55;;;1.63;;
48623;SDS011;34422;45.802;16.114;2023-04-03T04:51:42;4.10;;;2.08;;
48623;SDS011;34422;45.802;16.114;2023-04-03T04:54:08;4.13;;;1.75;;
48623;SDS011;34422;45.802;16.114;2023-04-03T04:56:35;4.32;;;1.65;;
48623;SDS011;34422;45.802;16.114;2023-04-03T04:59:02;5.72;;;2.28;;
48623;SDS011;34422;45.802;16.114;2023-04-03T05:01:29;5.05;;;2.30;;
48623;SDS011;34422;45.802;16.114;2023-04-03T05:03:55;4.22;;;1.98;;
48623;SDS011;34422;45.802;16.114;2023-04-03T05:06:22;5.25;;;1.95;;
48623;SDS011;34422;45.802;16.114;2023-04-03T05:08:49;4.15;;;1.77;;
48623;SDS011;34422;45.802;16.114;2023-04-03T05:11:15;3.92;;;1.70;;
48623;SDS011;34422;45.802;16.114;2023-04-03T05:13:42;4.70;;;1.98;;
48623;SDS011;34422;45.802;16.114;2023-04-03T05:16:09;6.80;;;2.33;;
48623;SDS011;34422;45.802;16.114;2023-04-03T05:18:35;4.88;;;2.45;;
48623;SDS011;34422;45.802;16.114;2023-04-03T05:21:02;5.32;;;2.45;;
48623;SDS011;34422;45.802;16.114;2023-04-03T05:23:30;4.22;;;2.08;;
48623;SDS011;34422;45.802;16.114;2023-04-03T05:25:56;4.50;;;1.95;;
48623;SDS011;34422;45.802;16.114;2023-04-03T05:28:23;8.93;;;3.20;;
48623;SDS011;34422;45.802;16.114;2023-04-03T05:30:54;4.40;;;1.98;;
48623;SDS011;34422;45.802;16.114;2023-04-03T05:33:22;4.78;;;1.73;;
48623;SDS011;34422;45.802;16.114;2023-04-03T05:35:49;4.78;;;2.20;;
48623;SDS011;34422;45.802;16.114;2023-04-03T05:38:16;4.25;;;2.10;;
48623;SDS011;34422;45.802;16.114;2023-04-03T05:40:43;3.78;;;1.80;;
48623;SDS011;34422;45.802;16.114;2023-04-03T05:43:09;5.10;;;2.22;;
48623;SDS011;34422;45.802;16.114;2023-04-03T05:45:36;4.03;;;2.05;;
48623;SDS011;34422;45.802;16.114;2023-04-03T05:48:03;5.75;;;2.15;;
48623;SDS011;34422;45.802;16.114;2023-04-03T05:50:30;4.45;;;2.25;;
48623;SDS011;34422;45.802;16.114;2023-04-03T05:52:57;5.82;;;2.85;;
48623;SDS011;34422;45.802;16.114;2023-04-03T05:55:25;4.47;;;2.20;;
48623;SDS011;34422;45.802;16.114;2023-04-03T05:57:52;5.03;;;2.63;;
48623;SDS011;34422;45.802;16.114;2023-04-03T06:00:18;4.05;;;2.08;;
48623;SDS011;34422;45.802;16.114;2023-04-03T06:02:45;7.75;;;2.67;;
48623;SDS011;34422;45.802;16.114;2023-04-03T06:05:12;12.38;;;3.80;;
48623;SDS011;34422;45.802;16.114;2023-04-03T06:07:39;9.48;;;3.30;;
48623;SDS011;34422;45.802;16.114;2023-04-03T06:10:07;4.72;;;2.38;;
48623;SDS011;34422;45.802;16.114;2023-04-03T06:12:35;6.93;;;2.65;;
48623;SDS011;34422;45.802;16.114;2023-04-03T06:15:02;8.32;;;3.40;;
48623;SDS011;34422;45.802;16.114;2023-04-03T06:17:29;15.70;;;3.17;;
48623;SDS011;34422;45.802;16.114;2023-04-03T06:19:56;5.55;;;2.25;;
48623;SDS011;34422;45.802;16.114;2023-04-03T06:22:24;4.88;;;2.00;;
48623;SDS011;34422;45.802;16.114;2023-04-03T06:24:52;4.35;;;1.80;;
48623;SDS011;34422;45.802;16.114;2023-04-03T06:27:19;4.63;;;2.30;;
48623;SDS011;34422;45.802;16.114;2023-04-03T06:29:45;4.63;;;2.05;;
48623;SDS011;34422;45.802;16.114;2023-04-03T06:32:12;4.85;;;2.20;;
48623;SDS011;34422;45.802;16.114;2023-04-03T06:34:41;5.13;;;2.15;;
48623;SDS011;34422;45.802;16.114;2023-04-03T06:37:26;4.15;;;1.98;;
48623;SDS011;34422;45.802;16.114;2023-04-03T06:39:54;5.18;;;1.90;;
48623;SDS011;34422;45.802;16.114;2023-04-03T06:42:21;7.28;;;2.25;;
48623;SDS011;34422;45.802;16.114;2023-04-03T06:44:48;4.90;;;1.80;;
48623;SDS011;34422;45.802;16.114;2023-04-03T06:47:15;5.68;;;2.45;;
48623;SDS011;34422;45.802;16.114;2023-04-03T06:49:43;4.88;;;2.35;;
48623;SDS011;34422;45.802;16.114;2023-04-03T06:52:09;4.03;;;1.83;;
48623;SDS011;34422;45.802;16.114;2023-04-03T06:54:38;7.63;;;2.15;;
48623;SDS011;34422;45.802;16.114;2023-04-03T06:57:07;4.88;;;2.33;;
48623;SDS011;34422;45.802;16.114;2023-04-03T06:59:34;5.20;;;2.22;;
48623;SDS011;34422;45.802;16.114;2023-04-03T07:02:01;4.53;;;2.00;;
48623;SDS011;34422;45.802;16.114;2023-04-03T07:04:28;4.43;;;2.03;;
48623;SDS011;34422;45.802;16.114;2023-04-03T07:06:55;4.63;;;2.00;;
48623;SDS011;34422;45.802;16.114;2023-04-03T07:09:22;5.85;;;2.17;;
48623;SDS011;34422;45.802;16.114;2023-04-03T07:11:48;3.83;;;1.63;;
48623;SDS011;34422;45.802;16.114;2023-04-03T07:14:15;5.65;;;2.47;;
48623;SDS011;34422;45.802;16.114;2023-04-03T07:16:42;6.50;;;2.88;;
48623;SDS011;34422;45.802;16.114;2023-04-03T07:19:09;6.55;;;2.50;;
48623;SDS011;34422;45.802;16.114;2023-04-03T07:21:36;5.25;;;2.15;;
48623;SDS011;34422;45.802;16.114;2023-04-03T07:24:02;5.88;;;2.85;;
48623;SDS011;34422;45.802;16.114;2023-04-03T07:26:29;6.07;;;2.20;;
48623;SDS011;34422;45.802;16.114;2023-04-03T07:28:56;4.80;;;2.13;;
48623;SDS011;34422;45.802;16.114;2023-04-03T07:31:23;5.13;;;2.17;;
48623;SDS011;34422;45.802;16.114;2023-04-03T07:33:51;5.45;;;2.22;;
48623;SDS011;34422;45.802;16.114;2023-04-03T07:36:18;4.82;;;1.92;;
48623;SDS011;34422;45.802;16.114;2023-04-03T07:38:46;5.38;;;2.80;;
48623;SDS011;34422;45.802;16.114;2023-04-03T07:41:14;3.97;;;1.90;;
48623;SDS011;34422;45.802;16.114;2023-04-03T07:43:44;5.90;;;2.13;;
48623;SDS011;34422;45.802;16.114;2023-04-03T07:46:11;5.03;;;2.22;;
48623;SDS011;34422;45.802;16.114;2023-04-03T07:48:38;7.10;;;2.70;;
48623;SDS011;34422;45.802;16.114;2023-04-03T07:51:05;6.90;;;2.30;;
48623;SDS011;34422;45.802;16.114;2023-04-03T07:53:32;6.75;;;1.90;;
48623;SDS011;34422;45.802;16.114;2023-04-03T07:55:59;7.78;;;2.20;;
48623;SDS011;34422;45.802;16.114;2023-04-03T07:58:26;4.45;;;1.80;;
48623;SDS011;34422;45.802;16.114;2023-04-03T08:00:53;5.47;;;1.63;;
48623;SDS011;34422;45.802;16.114;2023-04-03T08:03:20;7.55;;;1.77;;
48623;SDS011;34422;45.802;16.114;2023-04-03T08:05:47;4.82;;;1.60;;
48623;SDS011;34422;45.802;16.114;2023-04-03T08:08:16;5.05;;;1.90;;
48623;SDS011;34422;45.802;16.114;2023-04-03T08:10:48;5.72;;;2.05;;
48623;SDS011;34422;45.802;16.114;2023-04-03T08:13:16;4.53;;;1.58;;
48623;SDS011;34422;45.802;16.114;2023-04-03T08:15:43;4.65;;;1.75;;
48623;SDS011;34422;45.802;16.114;2023-04-03T08:18:10;6.18;;;2.03;;
48623;SDS011;34422;45.802;16.114;2023-04-03T08:20:37;4.47;;;1.60;;
48623;SDS011;34422;45.802;16.114;2023-04-03T08:23:04;3.92;;;1.73;;
48623;SDS011;34422;45.802;16.114;2023-04-03T08:25:31;7.50;;;1.80;;
48623;SDS011;34422;45.802;16.114;2023-04-03T08:27:58;4.30;;;1.77;;
48623;SDS011;34422;45.802;16.114;2023-04-03T08:30:25;6.50;;;2.28;;
48623;SDS011;34422;45.802;16.114;2023-04-03T08:32:52;5.72;;;1.92;;
48623;SDS011;34422;45.802;16.114;2023-04-03T08:35:19;5.97;;;1.92;;
48623;SDS011;34422;45.802;16.114;2023-04-03T08:37:46;4.95;;;2.00;;
48623;SDS011;34422;45.802;16.114;2023-04-03T08:40:14;6.90;;;2.28;;
48623;SDS011;34422;45.802;16.114;2023-04-03T08:45:21;10.65;;;1.67;;
48623;SDS011;34422;45.802;16.114;2023-04-03T08:48:02;3.53;;;1.38;;
48623;SDS011;34422;45.802;16.114;2023-04-03T08:50:43;3.85;;;1.65;;
48623;SDS011;34422;45.802;16.114;2023-04-03T08:53:14;4.25;;;1.55;;
48623;SDS011;34422;45.802;16.114;2023-04-03T08:55:47;5.07;;;1.80;;
48623;SDS011;34422;45.802;16.114;2023-04-03T08:58:18;4.00;;;1.30;;
48623;SDS011;34422;45.802;16.114;2023-04-03T09:00:48;4.20;;;1.77;;
48623;SDS011;34422;45.802;16.114;2023-04-03T09:03:19;3.38;;;1.58;;
48623;SDS011;34422;45.802;16.114;2023-04-03T09:05:53;4.07;;;2.08;;
48623;SDS011;34422;45.802;16.114;2023-04-03T09:10:59;4.85;;;1.70;;
48623;SDS011;34422;45.802;16.114;2023-04-03T09:14:12;4.47;;;1.77;;
48623;SDS011;34422;45.802;16.114;2023-04-03T09:22:13;5.57;;;1.90;;
48623;SDS011;34422;45.802;16.114;2023-04-03T09:24:57;3.83;;;1.80;;
48623;SDS011;34422;45.802;16.114;2023-04-03T09:27:28;7.80;;;2.08;;
48623;SDS011;34422;45.802;16.114;2023-04-03T09:29:55;5.57;;;2.10;;
48623;SDS011;34422;45.802;16.114;2023-04-03T09:32:35;4.63;;;2.00;;
48623;SDS011;34422;45.802;16.114;2023-04-03T09:35:03;6.90;;;2.00;;
48623;SDS011;34422;45.802;16.114;2023-04-03T09:37:42;5.80;;;1.90;;
48623;SDS011;34422;45.802;16.114;2023-04-03T09:42:54;5.18;;;1.95;;
48623;SDS011;34422;45.802;16.114;2023-04-03T09:45:25;5.30;;;2.10;;
48623;SDS011;34422;45.802;16.114;2023-04-03T09:51:01;6.72;;;2.47;;
48623;SDS011;34422;45.802;16.114;2023-04-03T09:53:42;5.72;;;2.03;;
48623;SDS011;34422;45.802;16.114;2023-04-03T09:58:40;4.63;;;1.88;;
48623;SDS011;34422;45.802;16.114;2023-04-03T10:01:20;5.15;;;1.95;;
48623;SDS011;34422;45.802;16.114;2023-04-03T10:03:47;5.68;;;1.77;;
48623;SDS011;34422;45.802;16.114;2023-04-03T10:06:49;8.30;;;2.20;;
48623;SDS011;34422;45.802;16.114;2023-04-03T10:12:09;5.30;;;2.35;;
48623;SDS011;34422;45.802;16.114;2023-04-03T10:17:49;4.32;;;1.92;;
48623;SDS011;34422;45.802;16.114;2023-04-03T10:25:43;4.88;;;1.75;;
48623;SDS011;34422;45.802;16.114;2023-04-03T10:31:17;4.70;;;1.90;;
48623;SDS011;34422;45.802;16.114;2023-04-03T10:42:04;5.78;;;2.55;;
48623;SDS011;34422;45.802;16.114;2023-04-03T10:53:52;5.18;;;1.90;;
48623;SDS011;34422;45.802;16.114;2023-04-03T10:59:23;5.30;;;1.98;;
48623;SDS011;34422;45.802;16.114;2023-04-03T11:01:53;5.82;;;1.95;;
48623;SDS011;34422;45.802;16.114;2023-04-03T11:09:28;4.72;;;2.10;;
48623;SDS011;34422;45.802;16.114;2023-04-03T11:14:44;6.70;;;2.63;;
48623;SDS011;34422;45.802;16.114;2023-04-03T11:22:32;4.85;;;2.05;;
48623;SDS011;34422;45.802;16.114;2023-04-03T11:38:44;6.85;;;2.30;;
48623;SDS011;34422;45.802;16.114;2023-04-03T11:41:13;5.00;;;2.67;;
48623;SDS011;34422;45.802;16.114;2023-04-03T11:43:42;6.32;;;2.42;;
48623;SDS011;34422;45.802;16.114;2023-04-03T11:49:49;4.80;;;2.05;;
48623;SDS011;34422;45.802;16.114;2023-04-03T11:57:50;9.57;;;2.67;;
48623;SDS011;34422;45.802;16.114;2023-04-03T12:24:27;5.20;;;2.50;;
48623;SDS011;34422;45.802;16.114;2023-04-03T12:30:01;5.60;;;2.50;;
48623;SDS011;34422;45.802;16.114;2023-04-03T12:43:56;6.55;;;2.45;;
48623;SDS011;34422;45.802;16.114;2023-04-03T12:46:23;6.32;;;1.85;;
48623;SDS011;34422;45.802;16.114;2023-04-03T12:48:56;5.78;;;2.20;;
48623;SDS011;34422;45.802;16.114;2023-04-03T12:51:34;5.05;;;2.30;;
48623;SDS011;34422;45.802;16.114;2023-04-03T12:56:39;9.18;;;2.63;;
48623;SDS011;34422;45.802;16.114;2023-04-03T13:02:40;4.93;;;2.45;;
48623;SDS011;34422;45.802;16.114;2023-04-03T13:05:08;8.30;;;2.50;;
48623;SDS011;34422;45.802;16.114;2023-04-03T13:07:40;6.88;;;2.80;;
48623;SDS011;34422;45.802;16.114;2023-04-03T13:12:57;5.35;;;2.25;;
48623;SDS011;34422;45.802;16.114;2023-04-03T13:15:27;5.80;;;2.50;;
48623;SDS011;34422;45.802;16.114;2023-04-03T13:17:57;5.28;;;2.47;;
48623;SDS011;34422;45.802;16.114;2023-04-03T13:25:20;4.80;;;2.28;;
48623;SDS011;34422;45.802;16.114;2023-04-03T13:27:49;4.28;;;2.00;;
48623;SDS011;34422;45.802;16.114;2023-04-03T13:30:27;5.07;;;2.40;;
48623;SDS011;34422;45.802;16.114;2023-04-03T13:32:58;5.18;;;2.15;;
48623;SDS011;34422;45.802;16.114;2023-04-03T13:40:50;5.78;;;2.50;;
48623;SDS011;34422;45.802;16.114;2023-04-03T13:43:20;4.90;;;2.20;;
48623;SDS011;34422;45.802;16.114;2023-04-03T13:51:05;5.13;;;2.28;;
48623;SDS011;34422;45.802;16.114;2023-04-03T13:53:48;5.28;;;2.80;;
48623;SDS011;34422;45.802;16.114;2023-04-03T14:01:55;4.95;;;2.35;;
48623;SDS011;34422;45.802;16.114;2023-04-03T14:07:10;5.28;;;2.50;;
48623;SDS011;34422;45.802;16.114;2023-04-03T14:09:41;9.73;;;3.40;;
48623;SDS011;34422;45.802;16.114;2023-04-03T14:12:11;6.75;;;2.45;;
48623;SDS011;34422;45.802;16.114;2023-04-03T14:14:42;5.93;;;3.00;;
48623;SDS011;34422;45.802;16.114;2023-04-03T14:17:13;5.45;;;2.63;;
48623;SDS011;34422;45.802;16.114;2023-04-03T14:19:42;5.15;;;2.33;;
48623;SDS011;34422;45.802;16.114;2023-04-03T14:25:46;5.15;;;2.67;;
48623;SDS011;34422;45.802;16.114;2023-04-03T14:28:22;7.07;;;3.28;;
48623;SDS011;34422;45.802;16.114;2023-04-03T14:30:50;6.70;;;2.70;;
48623;SDS011;34422;45.802;16.114;2023-04-03T14:33:19;6.88;;;2.83;;
48623;SDS011;34422;45.802;16.114;2023-04-03T14:35:47;6.18;;;2.75;;
48623;SDS011;34422;45.802;16.114;2023-04-03T14:38:20;5.90;;;2.40;;
48623;SDS011;34422;45.802;16.114;2023-04-03T14:40:49;6.60;;;3.08;;
48623;SDS011;34422;45.802;16.114;2023-04-03T14:43:16;6.32;;;2.88;;
48623;SDS011;34422;45.802;16.114;2023-04-03T14:45:44;5.18;;;2.70;;
48623;SDS011;34422;45.802;16.114;2023-04-03T14:48:21;5.18;;;2.60;;
48623;SDS011;34422;45.802;16.114;2023-04-03T14:50:50;5.72;;;3.10;;
48623;SDS011;34422;45.802;16.114;2023-04-03T14:53:18;6.55;;;2.45;;
48623;SDS011;34422;45.802;16.114;2023-04-03T14:55:49;5.00;;;2.35;;
48623;SDS011;34422;45.802;16.114;2023-04-03T14:58:17;6.35;;;2.88;;
48623;SDS011;34422;45.802;16.114;2023-04-03T15:00:45;6.30;;;2.72;;
48623;SDS011;34422;45.802;16.114;2023-04-03T15:03:16;4.88;;;2.63;;
48623;SDS011;34422;45.802;16.114;2023-04-03T15:05:46;5.55;;;2.38;;
48623;SDS011;34422;45.802;16.114;2023-04-03T15:08:19;5.90;;;2.60;;
48623;SDS011;34422;45.802;16.114;2023-04-03T15:10:48;5.68;;;2.40;;
48623;SDS011;34422;45.802;16.114;2023-04-03T15:13:15;4.18;;;2.17;;
48623;SDS011;34422;45.802;16.114;2023-04-03T15:15:42;6.15;;;2.97;;
48623;SDS011;34422;45.802;16.114;2023-04-03T15:18:14;4.95;;;2.45;;
48623;SDS011;34422;45.802;16.114;2023-04-03T15:20:44;5.88;;;2.30;;
48623;SDS011;34422;45.802;16.114;2023-04-03T15:23:15;6.05;;;2.47;;
48623;SDS011;34422;45.802;16.114;2023-04-03T15:25:43;6.82;;;2.80;;
48623;SDS011;34422;45.802;16.114;2023-04-03T15:28:18;7.15;;;2.45;;
48623;SDS011;34422;45.802;16.114;2023-04-03T15:30:48;9.88;;;2.80;;
48623;SDS011;34422;45.802;16.114;2023-04-03T15:33:15;5.60;;;2.58;;
48623;SDS011;34422;45.802;16.114;2023-04-03T15:35:42;8.23;;;3.20;;
48623;SDS011;34422;45.802;16.114;2023-04-03T15:38:09;5.13;;;2.38;;
48623;SDS011;34422;45.802;16.114;2023-04-03T15:40:36;5.18;;;2.50;;
48623;SDS011;34422;45.802;16.114;2023-04-03T15:43:04;5.30;;;2.40;;
48623;SDS011;34422;45.802;16.114;2023-04-03T15:45:33;5.47;;;3.05;;
48623;SDS011;34422;45.802;16.114;2023-04-03T15:48:02;5.70;;;2.58;;
48623;SDS011;34422;45.802;16.114;2023-04-03T15:50:30;8.80;;;3.17;;
48623;SDS011;34422;45.802;16.114;2023-04-03T15:52:58;5.63;;;2.70;;
48623;SDS011;34422;45.802;16.114;2023-04-03T15:55:25;5.82;;;2.70;;
48623;SDS011;34422;45.802;16.114;2023-04-03T15:57:52;6.00;;;2.65;;
48623;SDS011;34422;45.802;16.114;2023-04-03T16:00:20;7.30;;;2.40;;
48623;SDS011;34422;45.802;16.114;2023-04-03T16:02:51;5.45;;;2.53;;
48623;SDS011;34422;45.802;16.114;2023-04-03T16:05:20;5.00;;;2.97;;
48623;SDS011;34422;45.802;16.114;2023-04-03T16:07:47;5.70;;;2.63;;
48623;SDS011;34422;45.802;16.114;2023-04-03T16:10:14;5.95;;;2.80;;
48623;SDS011;34422;45.802;16.114;2023-04-03T16:12:44;7.43;;;2.97;;
48623;SDS011;34422;45.802;16.114;2023-04-03T16:15:11;5.72;;;2.90;;
48623;SDS011;34422;45.802;16.114;2023-04-03T16:17:38;6.50;;;3.03;;
48623;SDS011;34422;45.802;16.114;2023-04-03T16:20:07;8.43;;;3.58;;
48623;SDS011;34422;45.802;16.114;2023-04-03T16:22:35;5.90;;;3.03;;
48623;SDS011;34422;45.802;16.114;2023-04-03T16:25:04;5.85;;;2.42;;
48623;SDS011;34422;45.802;16.114;2023-04-03T16:27:32;6.95;;;3.58;;
48623;SDS011;34422;45.802;16.114;2023-04-03T16:29:59;11.55;;;4.32;;
48623;SDS011;34422;45.802;16.114;2023-04-03T16:32:27;6.60;;;2.83;;
48623;SDS011;34422;45.802;16.114;2023-04-03T16:34:57;8.57;;;3.05;;
48623;SDS011;34422;45.802;16.114;2023-04-03T16:37:24;7.30;;;3.00;;
48623;SDS011;34422;45.802;16.114;2023-04-03T16:39:51;6.00;;;2.78;;
48623;SDS011;34422;45.802;16.114;2023-04-03T16:42:19;6.03;;;3.42;;
48623;SDS011;34422;45.802;16.114;2023-04-03T16:44:46;5.30;;;2.90;;
48623;SDS011;34422;45.802;16.114;2023-04-03T16:47:12;6.57;;;3.15;;
48623;SDS011;34422;45.802;16.114;2023-04-03T16:49:40;6.40;;;3.58;;
48623;SDS011;34422;45.802;16.114;2023-04-03T16:52:07;8.27;;;3.10;;
48623;SDS011;34422;45.802;16.114;2023-04-03T16:54:33;5.45;;;2.85;;
48623;SDS011;34422;45.802;16.114;2023-04-03T16:57:00;6.00;;;3.00;;
48623;SDS011;34422;45.802;16.114;2023-04-03T16:59:27;5.90;;;3.17;;
48623;SDS011;34422;45.802;16.114;2023-04-03T17:01:54;7.60;;;4.20;;
48623;SDS011;34422;45.802;16.114;2023-04-03T17:04:21;8.07;;;3.38;;
48623;SDS011;34422;45.802;16.114;2023-04-03T17:06:47;6.10;;;3.50;;
48623;SDS011;34422;45.802;16.114;2023-04-03T17:09:14;5.45;;;2.78;;
48623;SDS011;34422;45.802;16.114;2023-04-03T17:11:41;7.20;;;3.72;;
48623;SDS011;34422;45.802;16.114;2023-04-03T17:14:08;5.93;;;3.25;;
48623;SDS011;34422;45.802;16.114;2023-04-03T17:16:35;9.25;;;4.15;;
48623;SDS011;34422;45.802;16.114;2023-04-03T17:19:03;7.88;;;5.00;;
48623;SDS011;34422;45.802;16.114;2023-04-03T17:21:31;6.82;;;3.20;;
48623;SDS011;34422;45.802;16.114;2023-04-03T17:24:00;7.20;;;3.25;;
48623;SDS011;34422;45.802;16.114;2023-04-03T17:26:29;7.82;;;3.40;;
48623;SDS011;34422;45.802;16.114;2023-04-03T17:28:56;6.05;;;3.20;;
48623;SDS011;34422;45.802;16.114;2023-04-03T17:31:23;6.28;;;3.33;;
48623;SDS011;34422;45.802;16.114;2023-04-03T17:33:50;6.72;;;3.42;;
48623;SDS011;34422;45.802;16.114;2023-04-03T17:36:16;8.32;;;3.85;;